Rain radar more information rain snow radar


Visit our other weather sites:

Template documentation
and downloads

And another site



Nearby METAR Reports

   
KTIW - Tacoma, Washington, USA
Distance from station: W 7 mi
Updated: May 24 2019 10:53 am
Overcast  
Overcast  
   Wind: SSW 12.7 mph
Wind: SSW 12.7 mph
Temperature: 55.4°F
Dew Point: 46.4°F
Humidity: 72%
Barometer: 29.89 inHg
Clouds: Overcast
Visibility: 10 mi
Cloud details: Partly Cloudy 610 m,
Partly Cloudy 762 m,
Overcast 884 m
KTIW 241753Z 20011KT 10SM SCT020 SCT025 OVC029 13/08 A2989 RMK AO2 SLP123 60000 T01280083 10128 20111 56005
KTCM - Tacoma/Mc Chord, Washington, USA
Distance from station: S 9 mi
Updated: May 24 2019 10:58 am
Overcast  
Overcast  
   Wind: SW 12.7 mph
Wind: SW 12.7 mph
Temperature: 55.4°F
Dew Point: 55.4°F
Humidity: 100%
Barometer: 29.91 inHg
Clouds: Overcast
Visibility: 10 mi
Cloud details: Mostly Cloudy 457 m,
Overcast 732 m
KTCM 241758Z AUTO 23011KT 10SM BKN015 OVC024 13/13 A2991 RMK AO2 CIG 014 RWY34 SLP132 T01300127 10130 20119 58002 $
KSEA - Seattle/Metro, Washington, USA
Distance from station: NNE 15 mi
Updated: May 24 2019 10:53 am
Light Rain, Overcast  
Light Rain, Overcast  
   Wind: South 11.5 mph
Wind: South 11.5 mph
Temperature: 53.6°F
Dew Point: 50°F
Humidity: 88%
Barometer: 29.9 inHg
Clouds: Overcast
Visibility: 8 mi
Cloud details: Mostly Cloudy 335 m,
Overcast 640 m
KSEA 241753Z 18010KT 8SM -RA BKN011 OVC021 12/10 A2990 RMK AO2 RAE34B51 SLP131 P0000 60000 T01220100 10128 20117 53001
KBFI - Seattle/Boeing, Washington, USA
Distance from station: NNE 21 mi
Updated: May 24 2019 10:53 am
Overcast  
Overcast  
   Wind: SSW 9.2 mph
Wind: SSW 9.2 mph
Temperature: 55.4°F
Dew Point: 48.2°F
Humidity: 77%
Barometer: 29.9 inHg
Clouds: Overcast
Visibility: 8 mi
Cloud details: Partly Cloudy 274 m,
Partly Cloudy 427 m,
Overcast 671 m
KBFI 241753Z 20008KT 8SM SCT009 SCT014 OVC022 13/09 A2990 RMK AO2 SLP124 T01330089 10133 20122 53001
KOLM - Olympia, Washington, USA
Distance from station: SW 29 mi
Updated: May 24 2019 10:54 am
Overcast  
Overcast  
   Wind: SW 11.5 mph
Wind: SW 11.5 mph
Temperature: 55.4°F
Dew Point: 48.2°F
Humidity: 77%
Barometer: 29.92 inHg
Clouds: Overcast
Visibility: 10 mi
Cloud details: Partly Cloudy 488 m,
Overcast 701 m
KOLM 241754Z 22010KT 10SM SCT016 OVC023 13/09 A2992 RMK AO2 SLP131 T01330094 10133 20117 58001
 

Script developed by  Saratoga-weather.org Adapted for the template by  Weerstation Leuven

You find our weather info also at:

Weather Underground

WeatherlinkIP

Citizen Weather Observer Program (CWOP)

Equipment we use:

Weather-station
Davis VP2

Weather-program
Meteobridge

Provider
MDD Hosting

Davis VP2

Meteobridge

MDD Hosting